Flood From: 21-02-2018 18:00 Until: 22-02-2018 16:00 warning for: Flood Level: Yellow info button

Although rather usual in this region, locally or potentially dangerous phenomena are expected. (such as local winds, summer thunderstorms, rising streams or high waves) Be aware and pay attention to the latest weather updates, especially if you carry out activities exposed to weather or close to a stream or shoreline. 


Meteo18 Weather Cam more information Meteo18 Weather Cam


Thunder radar more information blitzortung!


Rain radar more information rain snow radar


Visit our other weather sites:

Template documentation
and downloads

And another site



Weather Underground History page Text

Daily Summary for July 29, 2017 Units:  Metric    English   Both
« Previous Day
Next Day »
Daily Weekly Monthly Yearly Custom
  High: Low: Average:
Temperature: -17.8 °C -10.2 °C -6 °C
Dew Point: -17.8 °C -10.9 °C -9.8 °C
Humidity: Humidity % 40 % 67 %
Wind Speed: 0 km/h 0 km/h 8.2 km/h
Wind Gust: 0 km/h - -
Wind:- - SW
Pressure: 0 hPa 34279.9 hPa -
Precipitation: 0 mm    
Historical Graphs
 
 
Tabular Data for July 29, 2017
Time Temperature Dew Point Pressure Wind Wind Speed Wind Gust Humidity Rainfall Rate (Hourly)
-17.8 °C -17.8 °C 0 hPa Calm     Humidity % 0 mm
00:02 -8.5 °C -10.3 °C 34462.7 hPa SSW 2.6 km/h 5.1 km/h 81 % 0 mm
00:12 -8.4 °C -10.4 °C 34462.7 hPa SSW 5.1 km/h 5.1 km/h 80 % 0 mm
00:17 -8.4 °C -10.3 °C 34462.7 hPa SW 7.7 km/h 7.7 km/h 80 % 0 mm
00:22 -8.2 °C -10.3 °C 34462.7 hPa SW 7.7 km/h 7.7 km/h 79 % 0 mm
00:32 -8 °C -10.3 °C 34462.7 hPa SW 7.7 km/h 10.3 km/h 77 % 0 mm
00:42 -8 °C -10.3 °C 34462.7 hPa SSW 2.6 km/h 12.9 km/h 77 % 0 mm
00:47 -8 °C -10.3 °C 34462.7 hPa SW 5.1 km/h 12.9 km/h 77 % 0 mm
00:52 -8 °C -10.3 °C 34462.7 hPa Calm   12.9 km/h 77 % 0 mm
01:02 -8.2 °C -10.4 °C 34462.7 hPa West 5.1 km/h 10.3 km/h 78 % 0 mm
01:12 -8.2 °C -10.3 °C 34462.7 hPa WSW 2.6 km/h 10.3 km/h 78 % 0 mm
01:22 -8.2 °C -10.3 °C 34462.7 hPa SW 5.1 km/h 12.9 km/h 78 % 0 mm
01:32 -8.2 °C -10.2 °C 34462.7 hPa SW 7.7 km/h 12.9 km/h 79 % 0 mm
01:42 -8.2 °C -10.3 °C 34462.7 hPa Calm   12.9 km/h 79 % 0 mm
01:47 -8.3 °C -10.4 °C 34462.7 hPa Calm   12.9 km/h 79 % 0 mm
01:52 -8.5 °C -10.4 °C 34462.7 hPa Calm   10.3 km/h 80 % 0 mm
01:57 -8.7 °C -10.6 °C 34462.7 hPa Calm   7.7 km/h 81 % 0 mm
02:02 -8.9 °C -10.7 °C 34462.7 hPa Calm   5.1 km/h 82 % 0 mm
02:12 -9.2 °C -10.7 °C 34462.7 hPa Calm   2.6 km/h 84 % 0 mm
02:17 -9.3 °C -10.7 °C 34462.7 hPa Calm   2.6 km/h 85 % 0 mm
02:22 -9.3 °C -10.7 °C 34462.7 hPa Calm   2.6 km/h 85 % 0 mm
02:32 -9.4 °C -10.7 °C 34462.7 hPa Calm     86 % 0 mm
02:42 -9.5 °C -10.7 °C 34462.7 hPa Calm   2.6 km/h 87 % 0 mm
02:47 -9.5 °C -10.7 °C 34452.6 hPa Calm   2.6 km/h 87 % 0 mm
02:52 -9.6 °C -10.7 °C 34462.7 hPa Calm   2.6 km/h 87 % 0 mm
02:57 -9.7 °C -10.8 °C 34462.7 hPa Calm   2.6 km/h 87 % 0 mm
03:02 -9.8 °C -10.9 °C 34462.7 hPa Calm   2.6 km/h 88 % 0 mm
03:12 -9.8 °C -10.8 °C 34462.7 hPa Calm     89 % 0 mm
03:17 -9.7 °C -10.7 °C 34462.7 hPa Calm     89 % 0 mm
03:22 -9.6 °C -10.6 °C 34462.7 hPa Calm     89 % 0 mm
03:32 -9.7 °C -10.8 °C 34462.7 hPa Calm     88 % 0 mm
03:37 -9.7 °C -10.8 °C 34462.7 hPa Calm     88 % 0 mm
03:42 -9.8 °C -10.8 °C 34452.6 hPa Calm     89 % 0 mm
03:47 -9.8 °C -10.8 °C 34452.6 hPa Calm     89 % 0 mm
03:52 -9.8 °C -10.8 °C 34452.6 hPa Calm     89 % 0 mm
03:57 -9.9 °C -10.9 °C 34452.6 hPa Calm     89 % 0 mm
04:02 -9.9 °C -10.8 °C 34462.7 hPa Calm     90 % 0 mm
04:12 -9.9 °C -10.8 °C 34452.6 hPa SSE 2.6 km/h   90 % 0 mm
04:17 -9.9 °C -10.8 °C 34452.6 hPa Calm     90 % 0 mm
04:22 -9.9 °C -10.8 °C 34452.6 hPa Calm   2.6 km/h 90 % 0 mm
04:27 -9.9 °C -10.8 °C 34452.6 hPa SSE 2.6 km/h 5.1 km/h 90 % 0 mm
04:32 -9.9 °C -10.8 °C 34452.6 hPa SE 2.6 km/h 5.1 km/h 90 % 0 mm
04:37 -9.9 °C -10.8 °C 34452.6 hPa SE 2.6 km/h 5.1 km/h 90 % 0 mm
04:42 -10 °C -10.8 °C 34452.6 hPa Calm   5.1 km/h 91 % 0 mm
04:47 -10 °C -10.8 °C 34452.6 hPa Calm   5.1 km/h 91 % 0 mm
04:52 -9.9 °C -10.7 °C 34462.7 hPa Calm   5.1 km/h 91 % 0 mm
04:57 -9.9 °C -10.7 °C 34462.7 hPa SE 2.6 km/h 5.1 km/h 91 % 0 mm
05:02 -9.9 °C -10.7 °C 34462.7 hPa SSE 2.6 km/h 5.1 km/h 91 % 0 mm
05:12 -10 °C -10.8 °C 34462.7 hPa Calm   5.1 km/h 91 % 0 mm
05:17 -10 °C -10.8 °C 34462.7 hPa Calm   5.1 km/h 91 % 0 mm
05:22 -10.1 °C -10.8 °C 34462.7 hPa Calm   2.6 km/h 91 % 0 mm
05:32 -10.1 °C -10.8 °C 34462.7 hPa Calm   2.6 km/h 91 % 0 mm
05:42 -10.1 °C -10.8 °C 34462.7 hPa Calm   5.1 km/h 91 % 0 mm
05:47 -10.1 °C -10.9 °C 34462.7 hPa Calm   5.1 km/h 91 % 0 mm
05:52 -10.2 °C -10.9 °C 34462.7 hPa Calm   5.1 km/h 92 % 0 mm
05:57 -10.2 °C -10.9 °C 34462.7 hPa Calm   5.1 km/h 92 % 0 mm
06:02 -10.2 °C -10.9 °C 34462.7 hPa Calm   5.1 km/h 92 % 0 mm
06:12 -10.2 °C -10.9 °C 34462.7 hPa Calm   2.6 km/h 92 % 0 mm
06:17 -10.2 °C -10.9 °C 34462.7 hPa Calm   2.6 km/h 92 % 0 mm
06:22 -10.2 °C -10.9 °C 34462.7 hPa Calm     92 % 0 mm
06:32 -10.2 °C -10.8 °C 34462.7 hPa SSE 2.6 km/h   93 % 0 mm
06:37 -10.2 °C -10.8 °C 34462.7 hPa Calm     93 % 0 mm
06:42 -10.2 °C -10.8 °C 34476.3 hPa Calm   7.7 km/h 93 % 0 mm
06:52 -10.1 °C -10.7 °C 34476.3 hPa SE 2.6 km/h 5.1 km/h 93 % 0 mm
07:02 -9.9 °C -10.6 °C 34476.3 hPa SSE 2.6 km/h 5.1 km/h 93 % 0 mm
07:07 -9.9 °C -10.6 °C 34476.3 hPa Calm   5.1 km/h 93 % 0 mm
07:12 -9.9 °C -10.5 °C 34476.3 hPa SSE 2.6 km/h 7.7 km/h 93 % 0 mm
07:17 -9.8 °C -10.4 °C 34476.3 hPa SSW 2.6 km/h 7.7 km/h 93 % 0 mm
07:22 -9.8 °C -10.6 °C 34476.3 hPa SSW 2.6 km/h 5.1 km/h 92 % 0 mm
07:32 -9.8 °C -10.5 °C 34486.4 hPa SSW 5.1 km/h 7.7 km/h 92 % 0 mm
07:42 -9.8 °C -10.5 °C 34486.4 hPa SSW 5.1 km/h 7.7 km/h 92 % 0 mm
07:47 -9.7 °C -10.4 °C 34476.3 hPa South 5.1 km/h 7.7 km/h 92 % 0 mm
07:52 -9.7 °C -10.4 °C 34476.3 hPa SE 2.6 km/h 7.7 km/h 92 % 0 mm
08:02 -9.6 °C -10.3 °C 34476.3 hPa SSW 2.6 km/h 7.7 km/h 92 % 0 mm
08:12 -9.5 °C -10.2 °C 34476.3 hPa Calm   7.7 km/h 92 % 0 mm
08:17 -9.4 °C -10.3 °C 34476.3 hPa SSW 2.6 km/h 7.7 km/h 91 % 0 mm
08:27 -9.3 °C -10.1 °C 34476.3 hPa Calm   5.1 km/h 92 % 0 mm
08:32 -9.3 °C -10 °C 34476.3 hPa Calm   5.1 km/h 92 % 0 mm
08:37 -9.2 °C -10.1 °C 34486.4 hPa Calm   5.1 km/h 91 % 0 mm
08:42 -9.1 °C -9.8 °C 34486.4 hPa Calm   5.1 km/h 92 % 0 mm
08:52 -8.9 °C -9.8 °C 34486.4 hPa SSW 5.1 km/h 15.6 km/h 91 % 0 mm
09:02 -8.7 °C -9.7 °C 34476.3 hPa SSW 10.3 km/h 15.6 km/h 89 % 0 mm
09:12 -8.4 °C -9.6 °C 34486.4 hPa SW 5.1 km/h 18.2 km/h 88 % 0 mm
09:17 -8.3 °C -9.5 °C 34486.4 hPa SSW 7.7 km/h 18.2 km/h 87 % 0 mm
09:22 -8.2 °C -9.5 °C 34486.4 hPa South 12.9 km/h 15.6 km/h 86 % 0 mm
09:32 -8.1 °C -9.5 °C 34486.4 hPa SW 10.3 km/h 18.2 km/h 85 % 0 mm
09:42 -7.7 °C -9.2 °C 34476.3 hPa SSW 7.7 km/h 15.6 km/h 84 % 0 mm
09:52 -7.6 °C -9.2 °C 34476.3 hPa SSW 5.1 km/h 20.8 km/h 83 % 0 mm
09:57 -7.6 °C -9.2 °C 34476.3 hPa SW 18.2 km/h 20.8 km/h 83 % 0 mm
10:02 -7.6 °C -9.2 °C 34476.3 hPa SSW 10.3 km/h 20.8 km/h 84 % 0 mm
10:12 -7.6 °C -9.2 °C 34476.3 hPa SW 10.3 km/h 20.8 km/h 83 % 0 mm
10:17 -7.6 °C -9.3 °C 34476.3 hPa SW 10.3 km/h 20.8 km/h 82 % 0 mm
10:22 -7.6 °C -9.3 °C 34476.3 hPa SW 7.7 km/h 23.3 km/h 82 % 0 mm
10:32 -7.3 °C -9.1 °C 34476.3 hPa SW 18.2 km/h 31.1 km/h 81 % 0 mm
10:37 -7.1 °C -9.1 °C 34476.3 hPa SSW 5.1 km/h 31.1 km/h 80 % 0 mm
10:42 -6.9 °C -9.2 °C 34462.7 hPa SW 23.3 km/h 31.1 km/h 77 % 0 mm
10:47 -6.9 °C -9.1 °C 34476.3 hPa SSW 28.5 km/h 31.1 km/h 78 % 0 mm
10:52 -6.8 °C -9.1 °C 34462.7 hPa South 7.7 km/h 28.5 km/h 77 % 0 mm
11:02 -6.6 °C -9.2 °C 34462.7 hPa WSW 12.9 km/h 28.5 km/h 74 % 0 mm
11:12 -6.3 °C -9.2 °C 34462.7 hPa SSW 15.6 km/h 31.1 km/h 72 % 0 mm
11:17 -6.2 °C -9.4 °C 34462.7 hPa SW 31.1 km/h 31.1 km/h 70 % 0 mm
11:22 -6.2 °C -9.5 °C 34462.7 hPa WSW 10.3 km/h 31.1 km/h 69 % 0 mm
11:32 -6.1 °C -9.7 °C 34462.7 hPa SSW 12.9 km/h 31.1 km/h 66 % 0 mm
11:42 -5.9 °C -9.6 °C 34462.7 hPa South 10.3 km/h 25.9 km/h 66 % 0 mm
11:47 -5.8 °C -9.7 °C 34452.6 hPa SSW 15.6 km/h 25.9 km/h 65 % 0 mm
11:52 -5.8 °C -9.6 °C 34452.6 hPa SSW 15.6 km/h 28.5 km/h 65 % 0 mm
11:57 -5.7 °C -9.6 °C 34452.6 hPa SW 15.6 km/h 28.5 km/h 64 % 0 mm
12:02 -5.4 °C -9.3 °C 34452.6 hPa SSW 12.9 km/h 28.5 km/h 64 % 0 mm
12:12 -5.4 °C -10.2 °C 34452.6 hPa SSW 18.2 km/h 23.3 km/h 58 % 0 mm
12:17 -5.3 °C -10 °C 34452.6 hPa SW 7.7 km/h 23.3 km/h 59 % 0 mm
12:22 -5.1 °C -9.9 °C 34452.6 hPa SW 7.7 km/h 25.9 km/h 58 % 0 mm
12:32 -5.2 °C -10.2 °C 34452.6 hPa SW 5.1 km/h 25.9 km/h 57 % 0 mm
12:37 -5.1 °C -9.9 °C 34442.4 hPa SW 7.7 km/h 25.9 km/h 58 % 0 mm
12:42 -5.1 °C -10.2 °C 34452.6 hPa WSW 18.2 km/h 23.3 km/h 56 % 0 mm
12:47 -5.1 °C -10.1 °C 34442.4 hPa SW 7.7 km/h 23.3 km/h 57 % 0 mm
12:52 -5.1 °C -10.3 °C 34442.4 hPa SSW 12.9 km/h 23.3 km/h 55 % 0 mm
13:02 -4.9 °C -10.1 °C 34442.4 hPa SW 12.9 km/h 31.1 km/h 56 % 0 mm
13:07 -4.7 °C -9.8 °C 34442.4 hPa SSW 10.3 km/h 31.1 km/h 56 % 0 mm
13:17 -4.6 °C -10.1 °C 34428.8 hPa SW 12.9 km/h 25.9 km/h 54 % 0 mm
13:22 -4.4 °C -9.4 °C 34428.8 hPa SSW 15.6 km/h 33.6 km/h 57 % 0 mm
13:27 -4.4 °C -9.8 °C 34428.8 hPa SW 7.7 km/h 33.6 km/h 55 % 0 mm
13:32 -4.3 °C -9.3 °C 34428.8 hPa SW 15.6 km/h 33.6 km/h 57 % 0 mm
13:42 -4.1 °C -9.9 °C 34418.7 hPa SSW 23.3 km/h 28.5 km/h 52 % 0 mm
13:52 -3.8 °C -9.6 °C 34418.7 hPa SSW 5.1 km/h 33.6 km/h 53 % 0 mm
13:57 -3.7 °C -9.6 °C 34418.7 hPa SSW 15.6 km/h 33.6 km/h 52 % 0 mm
14:02 -3.6 °C -9.5 °C 34405.1 hPa South 12.9 km/h 23.3 km/h 52 % 0 mm
14:12 -3.4 °C -9.5 °C 34405.1 hPa South 18.2 km/h 36.2 km/h 51 % 0 mm
14:17 -3.5 °C -9.9 °C 34405.1 hPa SW 18.2 km/h 36.2 km/h 49 % 0 mm
14:27 -3.3 °C -9.7 °C 34395 hPa South 7.7 km/h 33.6 km/h 49 % 0 mm
14:32 -3.2 °C -9.4 °C 34384.8 hPa SW 18.2 km/h 33.6 km/h 50 % 0 mm
14:42 -3.1 °C -9.6 °C 34384.8 hPa SSW 15.6 km/h 25.9 km/h 49 % 0 mm
14:47 -3.1 °C -9.2 °C 34384.8 hPa SW 7.7 km/h 25.9 km/h 51 % 0 mm
14:57 -2.4 °C -8.8 °C 34371.3 hPa ESE 2.6 km/h 23.3 km/h 50 % 0 mm
15:02 -2.4 °C -8.9 °C 34371.3 hPa SSE 10.3 km/h 23.3 km/h 49 % 0 mm
15:12 -2.2 °C -8.9 °C 34361.1 hPa SW 18.2 km/h 25.9 km/h 48 % 0 mm
15:17 -2.3 °C -9 °C 34361.1 hPa SSW 7.7 km/h 25.9 km/h 48 % 0 mm
15:22 -2.2 °C -8.8 °C 34361.1 hPa SSW 10.3 km/h 28.5 km/h 48 % 0 mm
15:27 -2 °C -8.5 °C 34347.6 hPa SE 10.3 km/h 28.5 km/h 49 % 0 mm
15:37 -2 °C -9.1 °C 34347.6 hPa SSW 12.9 km/h 23.3 km/h 46 % 0 mm
15:42 -2 °C -8.7 °C 34347.6 hPa SSW 18.2 km/h 23.3 km/h 48 % 0 mm
15:47 -2.1 °C -9 °C 34347.6 hPa Calm   28.5 km/h 47 % 0 mm
15:52 -1.8 °C -8.9 °C 34347.6 hPa SW 7.7 km/h 28.5 km/h 46 % 0 mm
15:57 -1.8 °C -8.7 °C 34347.6 hPa SSE 7.7 km/h 28.5 km/h 47 % 0 mm
16:02 -1.7 °C -8.6 °C 34347.6 hPa SW 15.6 km/h 25.9 km/h 47 % 0 mm
16:12 -1.9 °C -8.8 °C 34337.4 hPa SW 12.9 km/h 25.9 km/h 47 % 0 mm
16:17 -1.9 °C -8.8 °C 34337.4 hPa SSW 7.7 km/h 31.1 km/h 47 % 0 mm
16:22 -1.8 °C -8.7 °C 34337.4 hPa SSE 2.6 km/h 31.1 km/h 47 % 0 mm
16:32 -1.9 °C -8.6 °C 34337.4 hPa WSW 15.6 km/h 23.3 km/h 48 % 0 mm
16:37 -1.8 °C -8.9 °C 34337.4 hPa SSW 2.6 km/h 31.1 km/h 46 % 0 mm
16:42 -1.7 °C -8.4 °C 34327.3 hPa SSW 12.9 km/h 31.1 km/h 48 % 0 mm
16:47 -1.8 °C -8.9 °C 34327.3 hPa WSW 15.6 km/h 28.5 km/h 46 % 0 mm
16:52 -1.7 °C -8.8 °C 34327.3 hPa WSW 12.9 km/h 33.6 km/h 46 % 0 mm
17:02 -1.7 °C -8.8 °C 34327.3 hPa SW 10.3 km/h 33.6 km/h 46 % 0 mm
17:12 -1.4 °C -8.8 °C 34313.7 hPa West 15.6 km/h 33.6 km/h 45 % 0 mm
17:17 -1.4 °C -8.9 °C 34313.7 hPa SW 36.2 km/h 36.2 km/h 44 % 0 mm
17:22 -1.4 °C -8.9 °C 34313.7 hPa SSW 15.6 km/h 31.1 km/h 44 % 0 mm
17:32 -1.2 °C -8.9 °C 34303.6 hPa SSW 18.2 km/h 38.8 km/h 43 % 0 mm
17:42 -1.2 °C -8.5 °C 34303.6 hPa SW 10.3 km/h 36.2 km/h 45 % 0 mm
17:47 -1.1 °C -8.2 °C 34303.6 hPa SSW 15.6 km/h 33.6 km/h 46 % 0 mm
17:52 -1.1 °C -8.8 °C 34303.6 hPa SW 28.5 km/h 33.6 km/h 43 % 0 mm
17:57 -1.1 °C -9.3 °C 34303.6 hPa West 2.6 km/h 38.8 km/h 41 % 0 mm
18:02 -1.1 °C -9 °C 34293.4 hPa SW 18.2 km/h 38.8 km/h 42 % 0 mm
18:07 -1 °C -9.2 °C 34293.4 hPa WSW 18.2 km/h 38.8 km/h 41 % 0 mm
18:12 -1 °C -8.8 °C 34293.4 hPa SSE 10.3 km/h 38.8 km/h 43 % 0 mm
18:17 -1 °C -9.2 °C 34293.4 hPa WSW 18.2 km/h 44.1 km/h 41 % 0 mm
18:22 -1.1 °C -9.2 °C 34293.4 hPa SSW 10.3 km/h 44.1 km/h 41 % 0 mm
18:32 -1.1 °C -9 °C 34293.4 hPa SW 31.1 km/h 49.2 km/h 42 % 0 mm
18:42 -1.2 °C -9.4 °C 34293.4 hPa WSW 18.2 km/h 51.8 km/h 41 % 0 mm
18:47 -1.2 °C -9.2 °C 34279.9 hPa WSW 15.6 km/h 51.8 km/h 42 % 0 mm
18:52 -1.3 °C -9.6 °C 34293.4 hPa SW 18.2 km/h 51.8 km/h 40 % 0 mm
19:02 -1.3 °C -9.4 °C 34293.4 hPa SW 18.2 km/h 46.7 km/h 41 % 0 mm
19:12 -1.4 °C -9.8 °C 34293.4 hPa WSW 10.3 km/h 46.7 km/h 40 % 0 mm
19:17 -1.5 °C -9.8 °C 34279.9 hPa SW 23.3 km/h 46.7 km/h 40 % 0 mm
19:22 -1.5 °C -9.6 °C 34279.9 hPa WSW 25.9 km/h 41.4 km/h 41 % 0 mm
19:32 -1.6 °C -9.9 °C 34293.4 hPa SW 23.3 km/h 41.4 km/h 40 % 0 mm
19:42 -1.6 °C -9.7 °C 34293.4 hPa WSW 20.8 km/h 41.4 km/h 41 % 0 mm
19:52 -1.7 °C -9.6 °C 34293.4 hPa SW 12.9 km/h 38.8 km/h 42 % 0 mm
19:57 -1.8 °C -9.7 °C 34293.4 hPa SSW 18.2 km/h 38.8 km/h 42 % 0 mm
20:02 -1.8 °C -9.7 °C 34293.4 hPa WSW 20.8 km/h 38.8 km/h 42 % 0 mm
20:12 -1.9 °C -9.8 °C 34293.4 hPa SW 18.2 km/h 36.2 km/h 42 % 0 mm
20:22 -2.1 °C -9.8 °C 34293.4 hPa WSW 20.8 km/h 36.2 km/h 43 % 0 mm
20:32 -2.3 °C -9.8 °C 34293.4 hPa West 7.7 km/h 36.2 km/h 44 % 0 mm
20:42 -2.4 °C -9.7 °C 34293.4 hPa WSW 15.6 km/h 36.2 km/h 45 % 0 mm
20:47 -2.6 °C -9.6 °C 34293.4 hPa SW 10.3 km/h 28.5 km/h 46 % 0 mm
20:52 -2.7 °C -9.5 °C 34293.4 hPa SW 12.9 km/h 28.5 km/h 47 % 0 mm
20:57 -2.8 °C -9.6 °C 34293.4 hPa West 5.1 km/h 28.5 km/h 47 % 0 mm
21:02 -2.9 °C -9.5 °C 34293.4 hPa SW 12.9 km/h 25.9 km/h 48 % 0 mm
21:12 -3.1 °C -9.6 °C 34293.4 hPa WSW 10.3 km/h 23.3 km/h 49 % 0 mm
21:17 -3.2 °C -9.6 °C 34293.4 hPa SW 5.1 km/h 20.8 km/h 49 % 0 mm
21:22 -3.3 °C -9.5 °C 34293.4 hPa WSW 15.6 km/h 20.8 km/h 50 % 0 mm
21:32 -3.6 °C -9.4 °C 34293.4 hPa West 5.1 km/h 18.2 km/h 52 % 0 mm
21:42 -3.9 °C -9.4 °C 34293.4 hPa Calm   18.2 km/h 54 % 0 mm
21:52 -4.1 °C -9.4 °C 34293.4 hPa West 2.6 km/h 5.1 km/h 55 % 0 mm
21:57 -4.2 °C -9.4 °C 34293.4 hPa WSW 5.1 km/h 5.1 km/h 56 % 0 mm
22:02 -4.3 °C -9.4 °C 34293.4 hPa WSW 5.1 km/h 10.3 km/h 57 % 0 mm
22:12 -4.5 °C -9.4 °C 34293.4 hPa West 5.1 km/h 10.3 km/h 58 % 0 mm
22:17 -4.6 °C -9.4 °C 34303.6 hPa West 5.1 km/h 7.7 km/h 58 % 0 mm
22:22 -4.6 °C -9.4 °C 34303.6 hPa SW 2.6 km/h 7.7 km/h 58 % 0 mm
22:27 -4.6 °C -9.3 °C 34303.6 hPa WSW 7.7 km/h 10.3 km/h 59 % 0 mm
22:32 -4.7 °C -9.4 °C 34303.6 hPa WSW 5.1 km/h 10.3 km/h 59 % 0 mm
22:42 -4.8 °C -9.3 °C 34303.6 hPa West 5.1 km/h 10.3 km/h 60 % 0 mm
22:47 -4.7 °C -9.3 °C 34303.6 hPa WSW 5.1 km/h 18.2 km/h 60 % 0 mm
22:52 -4.7 °C -9.4 °C 34303.6 hPa WSW 10.3 km/h 18.2 km/h 59 % 0 mm
22:57 -4.7 °C -9.4 °C 34303.6 hPa West 7.7 km/h 18.2 km/h 59 % 0 mm
23:02 -4.7 °C -9.4 °C 34303.6 hPa WSW 7.7 km/h 15.6 km/h 59 % 0 mm
23:07 -4.6 °C -9.3 °C 34303.6 hPa WSW 7.7 km/h 15.6 km/h 59 % 0 mm
23:12 -4.7 °C -9.4 °C 34303.6 hPa WSW 7.7 km/h 15.6 km/h 59 % 0 mm
23:17 -4.7 °C -9.4 °C 34303.6 hPa WSW 5.1 km/h 18.2 km/h 59 % 0 mm
23:22 -4.8 °C -9.5 °C 34303.6 hPa SW 10.3 km/h 18.2 km/h 59 % 0 mm
23:32 -4.9 °C -9.4 °C 34303.6 hPa SW 7.7 km/h 18.2 km/h 60 % 0 mm
23:37 -4.9 °C -9.3 °C 34303.6 hPa SW 7.7 km/h 15.6 km/h 61 % 0 mm
23:42 -5.1 °C -9.4 °C 34303.6 hPa SW 10.3 km/h 15.6 km/h 61 % 0 mm
23:47 -5.2 °C -9.3 °C 34303.6 hPa SW 10.3 km/h 18.2 km/h 63 % 0 mm
23:52 -5.3 °C -9.4 °C 34303.6 hPa SW 2.6 km/h 18.2 km/h 63 % 0 mm
23:57 -5.4 °C -9.4 °C 34303.6 hPa SSW 2.6 km/h 18.2 km/h 64 % 0 mm
Meteo18
Compliments of Weather Underground - 4 mb

Script developed by  Jim McMurry - jmcmurry@mwt.net Adapted for the template by  Wim van der Kuil - Leuven-Template.eu

You find our weather info also at:

European Weather Network

Weather Underground

Equipment we use:

Weather-station
Davis Vue

Weather-program
Meteobridge

Weather-server
Raspberry PI 2 B+

Provider
1 and 1

Davis Vue

Meteobridge

Raspberry PI 2 B+

1 and 1